Messwerte Basrah

Temperatur

Temperatur
°C
1614686400 15.00 15.00 24
1614690000 16.00 16.00 24
1614693600 17.00 17.00
1614697200 18.00 18.00 22
1614700800 19.00 19.00 21
1614704400 20.00 20.00 19
1614708000 21.00 21.00 19
1614711600 22.00 22.00 17
1614715200 23.00 23.00 16
1614718800 0.00 0.00 15
1614722400 1.00 1.00 14
1614726000 2.00 2.00
1614729600 3.00 3.00
1614733200 4.00 4.00
1614736800 5.00 5.00
1614740400 6.00 6.00 12
1614744000 7.00 7.00 11
1614747600 8.00 8.00 14
1614751200 9.00 9.00 18
1614754800 10.00 10.00 20
1614758400 11.00 11.00 23
1614762000 12.00 12.00 24
1614765600 13.00 13.00 25
1614769200 14.00 14.00 26

Aktuellste Messwerte

Wettercharakter
Wetter: recht sonnig
Temperatur
26 °C
Feuchtigkeit
25 %
Wind
5 km/hWindrichtung: Nordwest
Luftdruck
1017 hPa
Messzeit: 3. März 2021, 15.00Datenquelle: METAR

Weitere Messstationen in der Nähe

Messstation Temperatur Entfernung
Abadan 27 °C 50 km
Ahwaz 26 °C 120 km
Kuwait-Stadt 25 °C 151 km
Omidiyeh 26 °C 182 km
Kharg 21 °C 280 km
Gach Saran 23 °C 293 km
Hafar Al-Batin 24 °C 297 km

Wind

Windrichtung Böen Mittelwind
° km/h km/h
1614686400 15.00 14.00 - 15.00 330° 20
1614690000 16.00 15.00 - 16.00 290° 10
1614693600 17.00 16.00 - 17.00
1614697200 18.00 17.00 - 18.00 310° 20
1614700800 19.00 18.00 - 19.00 310° 10
1614704400 20.00 19.00 - 20.00 340° 5
1614708000 21.00 20.00 - 21.00 0
1614711600 22.00 21.00 - 22.00 0
1614715200 23.00 22.00 - 23.00 0
1614718800 0.00 23.00 - 0.00 0
1614722400 1.00 0.00 - 1.00 280° 5
1614726000 2.00 1.00 - 2.00
1614729600 3.00 2.00 - 3.00 270° 5
1614733200 4.00 3.00 - 4.00
1614736800 5.00 4.00 - 5.00
1614740400 6.00 5.00 - 6.00 0
1614744000 7.00 6.00 - 7.00 0
1614747600 8.00 7.00 - 8.00 0
1614751200 9.00 8.00 - 9.00 0
1614754800 10.00 9.00 - 10.00 0
1614758400 11.00 10.00 - 11.00 0
1614762000 12.00 11.00 - 12.00 360° 10
1614765600 13.00 12.00 - 13.00 290° 15
1614769200 14.00 13.00 - 14.00 290° 10

Ihre Wetterstation

Fehlt Ihre Wetterstation auf unserem Portal?

Schreiben Sie an network@meteonews.ch

Klima

Wann ist es am wärmsten? Wann regnet es am wenigsten? Unsere Klimadaten geben Auskunft.